San Francisco, California
Traffic Map
Current Weather Conditions
San Francisco, California
Broken Clouds
Broken Clouds
53°
Feels Like: 53°
Wind Chill: 53° Ceiling: 4200
Heat Index: 53° Visibility: 10mi
Dew Point: 47° Wind: 8mph
Humidity: 80% Direction: 310° (NW)
Pressure: 30.16in Gusts: 0mph
Raw Report DataKSFO 271156Z 31007KT 10SM FEW010 FEW023 BKN042 12/08 A3016 RMK AO2 SLP212 60000 70002 T01170083 10128 20111 53011 $
Traffic Incident Summary
Active as of:
Severity:
Category:
InformationThere was an issue retrieving the traffic information for this location. Please try a different location or try again shortly.
Advertisements
Track Severe Weather on mobile